createdAt,value
2023-08-22T00:01:50.744Z,26.00
2023-08-22T00:04:19.224Z,26.00
2023-08-22T00:06:47.731Z,26.00
2023-08-22T00:09:17.411Z,26.00
2023-08-22T00:11:45.920Z,26.10
2023-08-22T00:14:14.459Z,26.10
2023-08-22T00:16:43.311Z,26.00
2023-08-22T00:19:15.241Z,26.00
2023-08-22T00:21:43.750Z,26.00
2023-08-22T00:24:12.220Z,25.90
2023-08-22T00:26:40.746Z,26.00
2023-08-22T00:29:09.271Z,25.90
2023-08-22T00:31:37.901Z,26.00
2023-08-22T00:34:06.407Z,26.00
2023-08-22T00:36:36.243Z,26.00
2023-08-22T00:39:04.904Z,26.00
2023-08-22T00:41:33.846Z,26.00
2023-08-22T00:44:02.388Z,26.00
2023-08-22T00:46:31.199Z,26.10
2023-08-22T00:49:00.074Z,26.00
2023-08-22T00:51:28.576Z,26.10
2023-08-22T00:53:58.530Z,26.00
2023-08-22T00:56:27.097Z,26.00
2023-08-22T00:58:55.620Z,26.00
2023-08-22T01:01:24.105Z,26.00
2023-08-22T01:03:52.751Z,26.00
2023-08-22T01:06:25.457Z,26.00
2023-08-22T01:08:55.590Z,26.00
2023-08-22T01:11:30.459Z,26.00
2023-08-22T01:13:59.781Z,25.90
2023-08-22T01:16:28.306Z,26.00
2023-08-22T01:18:57.419Z,26.00
2023-08-22T01:21:26.070Z,26.00
2023-08-22T01:23:55.996Z,26.00
2023-08-22T01:26:24.573Z,26.00
2023-08-22T01:28:56.226Z,26.00
2023-08-22T01:31:27.589Z,26.00
2023-08-22T01:33:59.472Z,26.00
2023-08-22T01:36:28.360Z,26.00
2023-08-22T01:39:00.925Z,26.00
2023-08-22T01:41:29.498Z,25.90
2023-08-22T01:43:57.995Z,25.90
2023-08-22T01:46:26.623Z,25.90
2023-08-22T01:48:55.661Z,25.90
2023-08-22T01:51:24.173Z,25.90
2023-08-22T01:53:52.703Z,26.00
2023-08-22T01:56:22.640Z,26.00
2023-08-22T01:58:51.252Z,26.00
2023-08-22T02:01:20.556Z,26.00
2023-08-22T02:03:49.328Z,26.10
2023-08-22T02:06:17.987Z,26.00
2023-08-22T02:08:46.526Z,26.00
2023-08-22T02:11:15.010Z,26.00
2023-08-22T02:13:44.881Z,26.00
2023-08-22T02:16:13.351Z,26.10
2023-08-22T02:18:41.895Z,26.20
2023-08-22T02:21:10.390Z,26.10
2023-08-22T02:23:38.895Z,26.10
2023-08-22T02:26:07.513Z,26.10
2023-08-22T02:28:35.970Z,26.10
2023-08-22T02:31:05.844Z,26.10
2023-08-22T02:33:34.436Z,26.00
2023-08-22T02:36:03.095Z,26.00
2023-08-22T02:38:31.605Z,26.00
2023-08-22T02:41:00.146Z,25.90
2023-08-22T02:43:28.612Z,25.90
2023-08-22T02:45:57.084Z,25.80
2023-08-22T02:48:27.036Z,25.80
2023-08-22T02:50:55.581Z,25.80
2023-08-22T02:53:24.105Z,25.80
2023-08-22T02:55:52.655Z,25.80
2023-08-22T02:58:21.028Z,25.90
2023-08-22T03:00:49.731Z,25.90
2023-08-22T03:03:18.289Z,26.00
2023-08-22T03:05:48.375Z,26.00
2023-08-22T03:08:16.912Z,26.00
2023-08-22T03:10:45.443Z,26.00
2023-08-22T03:13:14.001Z,26.10
2023-08-22T03:15:42.468Z,26.10
2023-08-22T03:18:11.044Z,26.20
2023-08-22T03:20:39.514Z,26.20
2023-08-22T03:23:09.458Z,26.20
2023-08-22T03:25:37.838Z,26.20
2023-08-22T03:28:06.360Z,26.20
2023-08-22T03:30:34.904Z,26.20
2023-08-22T03:33:04.074Z,26.20
2023-08-22T03:35:32.627Z,26.20
2023-08-22T03:38:01.158Z,26.20
2023-08-22T03:40:31.457Z,26.20
2023-08-22T03:43:00.000Z,26.20
2023-08-22T03:45:28.549Z,26.10
2023-08-22T03:47:57.060Z,26.20
2023-08-22T03:50:25.706Z,26.20
2023-08-22T03:52:54.170Z,26.30
2023-08-22T03:55:22.595Z,26.30
2023-08-22T03:57:52.433Z,26.40
2023-08-22T04:00:20.973Z,26.40
2023-08-22T04:02:49.789Z,26.40
2023-08-22T04:05:18.340Z,26.40
2023-08-22T04:07:46.984Z,26.50
2023-08-22T04:10:15.550Z,26.40
2023-08-22T04:12:44.256Z,26.50
2023-08-22T04:15:14.777Z,26.40
2023-08-22T04:17:44.166Z,26.50
2023-08-22T04:20:13.468Z,26.50
2023-08-22T04:22:42.538Z,26.60
2023-08-22T04:25:11.937Z,26.60
2023-08-22T04:27:41.589Z,26.60
2023-08-22T04:30:12.387Z,26.60
2023-08-22T04:32:42.374Z,26.70
2023-08-22T04:35:10.972Z,26.80
2023-08-22T04:37:39.776Z,26.80
2023-08-22T04:40:08.948Z,26.80
2023-08-22T04:42:37.457Z,26.80
2023-08-22T04:45:06.507Z,26.90
2023-08-22T04:47:35.123Z,26.90
2023-08-22T04:50:05.206Z,26.80
2023-08-22T04:52:33.733Z,26.80
2023-08-22T04:55:02.532Z,26.80
2023-08-22T04:57:31.085Z,26.80
2023-08-22T04:59:59.513Z,26.80
2023-08-22T05:02:28.618Z,26.80
2023-08-22T05:04:57.462Z,26.80
2023-08-22T05:07:27.416Z,26.80
2023-08-22T05:09:55.926Z,26.90
2023-08-22T05:12:24.364Z,26.90
2023-08-22T05:14:52.936Z,26.90
2023-08-22T05:17:22.525Z,27.00
2023-08-22T05:19:51.154Z,27.00
2023-08-22T05:22:19.840Z,27.10
2023-08-22T05:24:49.731Z,27.20
2023-08-22T05:27:18.567Z,27.30
2023-08-22T05:29:47.120Z,27.40
2023-08-22T05:32:15.597Z,27.30
2023-08-22T05:34:44.476Z,27.40
2023-08-22T05:37:13.069Z,27.40
2023-08-22T05:39:41.629Z,27.40
2023-08-22T05:42:11.477Z,27.50
2023-08-22T05:44:40.058Z,27.50
2023-08-22T05:47:09.411Z,27.60
2023-08-22T05:49:37.932Z,27.60
2023-08-22T05:52:06.872Z,27.60
2023-08-22T05:54:35.410Z,27.60
2023-08-22T05:57:04.048Z,27.60
2023-08-22T05:59:34.083Z,27.60
2023-08-22T06:02:03.202Z,27.70
2023-08-22T06:04:31.756Z,27.80
2023-08-22T06:07:00.284Z,27.80
2023-08-22T06:09:28.803Z,27.80
2023-08-22T06:11:57.330Z,27.80
2023-08-22T06:14:28.238Z,27.80
2023-08-22T06:16:58.212Z,28.00
2023-08-22T06:19:26.742Z,28.00
2023-08-22T06:21:55.976Z,28.10
2023-08-22T06:24:25.470Z,28.10
2023-08-22T06:26:54.036Z,28.10
2023-08-22T06:29:22.504Z,28.10
2023-08-22T06:31:51.069Z,28.10
2023-08-22T06:34:20.929Z,28.20
2023-08-22T06:36:49.410Z,28.30
2023-08-22T06:39:18.842Z,28.30
2023-08-22T06:41:47.373Z,28.40
2023-08-22T06:44:15.831Z,28.50
2023-08-22T06:46:44.286Z,28.50
2023-08-22T06:49:12.904Z,28.50
2023-08-22T06:51:42.821Z,28.50
2023-08-22T06:54:11.725Z,28.50
2023-08-22T06:56:40.177Z,28.60
2023-08-22T06:59:08.766Z,28.50
2023-08-22T07:01:37.315Z,28.60
2023-08-22T07:04:15.823Z,28.70
2023-08-22T07:06:47.323Z,28.70
2023-08-22T07:09:15.810Z,28.70
2023-08-22T07:11:44.291Z,28.60
2023-08-22T07:14:12.855Z,28.60
2023-08-22T07:16:41.418Z,28.70
2023-08-22T07:19:09.928Z,28.80
2023-08-22T07:21:38.453Z,28.80
2023-08-22T07:24:08.506Z,28.80
2023-08-22T07:26:36.953Z,28.80
2023-08-22T07:29:06.108Z,28.80
2023-08-22T07:31:34.552Z,28.80
2023-08-22T07:34:03.050Z,28.80
2023-08-22T07:36:31.560Z,28.90
2023-08-22T07:39:00.246Z,28.90
2023-08-22T07:41:30.135Z,29.00
2023-08-22T07:43:58.591Z,29.00
2023-08-22T07:46:27.276Z,29.00
2023-08-22T07:48:55.765Z,28.90
2023-08-22T07:51:24.334Z,29.10
2023-08-22T07:53:52.872Z,29.40
2023-08-22T07:56:21.392Z,29.60
2023-08-22T07:58:51.407Z,29.80
2023-08-22T08:01:19.962Z,29.80
2023-08-22T08:03:48.590Z,29.70
2023-08-22T08:06:19.242Z,29.90
2023-08-22T08:08:48.032Z,30.10
2023-08-22T08:11:16.708Z,30.20
2023-08-22T08:13:45.266Z,30.40
2023-08-22T08:16:21.599Z,30.50
2023-08-22T08:18:56.241Z,30.50
2023-08-22T08:21:24.742Z,30.40
2023-08-22T08:23:53.216Z,30.60
2023-08-22T08:26:21.804Z,30.60
2023-08-22T08:28:50.237Z,30.80
2023-08-22T08:31:20.184Z,30.80
2023-08-22T08:33:48.698Z,30.60
2023-08-22T08:36:18.825Z,30.50
2023-08-22T08:38:47.464Z,30.40
2023-08-22T08:41:16.093Z,30.40
2023-08-22T08:43:44.790Z,30.20
2023-08-22T08:46:14.167Z,30.20
2023-08-22T08:48:45.636Z,30.30
2023-08-22T08:51:14.182Z,30.30
2023-08-22T08:53:43.385Z,30.10
2023-08-22T08:56:12.365Z,30.20
2023-08-22T08:58:40.928Z,30.10
2023-08-22T09:01:10.055Z,30.10
2023-08-22T09:03:38.578Z,30.10
2023-08-22T09:06:08.557Z,30.30
2023-08-22T09:08:37.097Z,30.40
2023-08-22T09:11:05.581Z,30.50
2023-08-22T09:13:54.143Z,30.60
2023-08-22T09:16:24.976Z,30.40
2023-08-22T09:18:53.593Z,30.20
2023-08-22T09:21:23.337Z,30.20
2023-08-22T09:23:51.999Z,30.10
2023-08-22T09:26:23.272Z,29.90
2023-08-22T09:28:51.825Z,29.90
2023-08-22T09:31:23.172Z,29.70
2023-08-22T09:33:52.377Z,29.80
2023-08-22T09:36:22.117Z,29.70
2023-08-22T09:38:55.830Z,29.90
2023-08-22T09:41:29.313Z,29.70
2023-08-22T09:44:00.037Z,29.70
2023-08-22T09:46:29.076Z,29.70
2023-08-22T09:48:58.239Z,29.80
2023-08-22T09:51:27.122Z,29.80
2023-08-22T09:54:01.033Z,29.90
2023-08-22T09:56:29.736Z,30.10
2023-08-22T09:58:58.285Z,30.20
2023-08-22T10:01:30.016Z,30.30
2023-08-22T10:04:00.343Z,30.30
2023-08-22T10:06:42.552Z,30.30
2023-08-22T10:09:17.364Z,30.30
2023-08-22T10:11:47.492Z,30.00
2023-08-22T10:14:23.067Z,29.80
2023-08-22T10:16:51.556Z,29.60
2023-08-22T10:19:22.196Z,29.50
2023-08-22T10:21:50.809Z,29.30
2023-08-22T10:24:29.319Z,29.30
2023-08-22T10:27:04.909Z,29.30
2023-08-22T10:29:36.250Z,29.20
2023-08-22T10:32:23.990Z,29.40
2023-08-22T10:35:10.053Z,29.70
2023-08-22T10:37:46.823Z,29.70
2023-08-22T10:40:24.181Z,29.60
2023-08-22T10:42:53.437Z,29.80
2023-08-22T10:45:22.038Z,29.90
2023-08-22T10:47:50.810Z,29.70
2023-08-22T10:50:19.288Z,29.50
2023-08-22T10:52:47.972Z,29.60
2023-08-22T10:55:16.679Z,29.70
2023-08-22T10:57:48.669Z,29.50
2023-08-22T11:00:23.191Z,29.40
2023-08-22T11:02:52.760Z,29.30
2023-08-22T11:05:21.661Z,29.30
2023-08-22T11:07:51.786Z,29.10
2023-08-22T11:10:20.994Z,29.00
2023-08-22T11:12:51.383Z,29.10
2023-08-22T11:15:20.127Z,29.00
2023-08-22T11:17:49.175Z,29.10
2023-08-22T11:20:19.198Z,29.20
2023-08-22T11:22:48.125Z,29.20
2023-08-22T11:25:25.861Z,29.20
2023-08-22T11:27:55.901Z,29.20
2023-08-22T11:30:24.372Z,29.30
2023-08-22T11:32:52.980Z,29.30
2023-08-22T11:35:21.908Z,29.30
2023-08-22T11:37:50.710Z,29.40
2023-08-22T11:40:19.417Z,29.30
2023-08-22T11:42:48.714Z,29.40
2023-08-22T11:45:23.076Z,29.40
2023-08-22T11:47:52.772Z,29.30
2023-08-22T11:50:24.826Z,29.20
2023-08-22T11:52:55.080Z,29.30
2023-08-22T11:55:25.698Z,29.30
2023-08-22T11:57:56.098Z,29.30
2023-08-22T12:00:27.810Z,29.20
2023-08-22T12:02:57.354Z,29.10
2023-08-22T12:05:32.346Z,29.00
2023-08-22T12:08:01.468Z,29.10
2023-08-22T12:10:40.107Z,29.20
2023-08-22T12:13:08.832Z,29.40
2023-08-22T12:15:39.155Z,29.40
2023-08-22T12:18:07.963Z,29.40
2023-08-22T12:20:36.956Z,29.50
2023-08-22T12:23:05.741Z,29.40
2023-08-22T12:25:35.115Z,29.50
2023-08-22T12:28:05.124Z,29.50
2023-08-22T12:30:34.728Z,29.70
2023-08-22T12:33:05.541Z,29.60
2023-08-22T12:35:34.303Z,29.60
2023-08-22T12:38:03.851Z,29.60
2023-08-22T12:40:32.535Z,29.60
2023-08-22T12:43:01.442Z,29.50
2023-08-22T12:45:30.016Z,29.50
2023-08-22T12:47:58.747Z,29.50
2023-08-22T12:50:28.688Z,29.70
2023-08-22T12:52:57.487Z,29.80
2023-08-22T12:55:26.082Z,29.90
2023-08-22T12:57:54.601Z,30.00
2023-08-22T13:00:23.203Z,30.00
2023-08-22T13:02:52.152Z,29.80
2023-08-22T13:05:21.229Z,29.70
2023-08-22T13:07:51.025Z,29.60
2023-08-22T13:10:19.538Z,29.50
2023-08-22T13:12:48.271Z,29.40
2023-08-22T13:15:17.005Z,29.30
2023-08-22T13:17:45.885Z,29.40
2023-08-22T13:20:14.600Z,29.30
2023-08-22T13:22:43.100Z,29.40
2023-08-22T13:25:13.083Z,29.50
2023-08-22T13:27:41.584Z,29.50
2023-08-22T13:30:10.467Z,29.50
2023-08-22T13:32:39.127Z,29.50
2023-08-22T13:35:10.101Z,29.60
2023-08-22T13:37:38.645Z,29.70
2023-08-22T13:40:09.055Z,29.70
2023-08-22T13:42:39.346Z,29.70
2023-08-22T13:45:08.504Z,29.70
2023-08-22T13:47:37.647Z,29.70
2023-08-22T13:50:06.704Z,29.70
2023-08-22T13:52:35.383Z,29.60
2023-08-22T13:55:04.082Z,29.60
2023-08-22T13:57:32.614Z,29.50
2023-08-22T14:00:02.527Z,29.40
2023-08-22T14:02:31.163Z,29.40
2023-08-22T14:04:59.682Z,29.40
2023-08-22T14:07:28.173Z,29.30
2023-08-22T14:09:56.745Z,29.40
2023-08-22T14:12:25.241Z,29.40
2023-08-22T14:14:53.821Z,29.40
2023-08-22T14:17:24.406Z,29.50
2023-08-22T14:19:52.877Z,29.40
2023-08-22T14:22:21.433Z,29.30
2023-08-22T14:24:49.974Z,29.40
2023-08-22T14:27:18.526Z,29.40
2023-08-22T14:29:47.672Z,29.40
2023-08-22T14:32:16.302Z,29.40
2023-08-22T14:34:46.215Z,29.40
2023-08-22T14:37:22.665Z,29.50
2023-08-22T14:39:53.050Z,29.50
2023-08-22T14:42:21.537Z,29.60
2023-08-22T14:44:50.149Z,29.70
2023-08-22T14:47:18.756Z,29.70
2023-08-22T14:49:48.684Z,29.80
2023-08-22T14:52:17.203Z,29.80
2023-08-22T14:54:45.724Z,29.90
2023-08-22T14:57:14.209Z,29.90
2023-08-22T14:59:43.150Z,29.90
2023-08-22T15:02:11.690Z,30.00
2023-08-22T15:04:40.350Z,29.90
2023-08-22T15:07:10.314Z,29.90
2023-08-22T15:09:38.874Z,30.00
2023-08-22T15:12:07.814Z,30.00
2023-08-22T15:14:36.364Z,29.90
2023-08-22T15:17:04.951Z,29.90
2023-08-22T15:19:33.463Z,29.90
2023-08-22T15:22:01.997Z,30.00
2023-08-22T15:24:31.956Z,29.80
2023-08-22T15:27:00.371Z,29.80
2023-08-22T15:29:28.780Z,29.80
2023-08-22T15:31:57.245Z,29.80
2023-08-22T15:34:25.808Z,29.80
2023-08-22T15:36:54.305Z,29.70
2023-08-22T15:39:22.744Z,29.60
2023-08-22T15:41:52.717Z,29.50
2023-08-22T15:44:21.310Z,29.50
2023-08-22T15:46:49.895Z,29.50
2023-08-22T15:49:18.540Z,29.50
2023-08-22T15:51:47.142Z,29.50
2023-08-22T15:54:15.691Z,29.50
2023-08-22T15:56:44.142Z,29.60
2023-08-22T15:59:14.051Z,29.70
2023-08-22T16:01:42.558Z,29.60
2023-08-22T16:04:11.163Z,29.50
2023-08-22T16:06:39.710Z,29.50
2023-08-22T16:09:08.285Z,29.50
2023-08-22T16:11:36.677Z,29.40
2023-08-22T16:14:05.210Z,29.40
2023-08-22T16:16:35.235Z,29.40
2023-08-22T16:19:03.708Z,29.40
2023-08-22T16:21:32.348Z,29.20
2023-08-22T16:24:00.942Z,29.20
2023-08-22T16:26:29.931Z,29.20
2023-08-22T16:28:58.433Z,29.20
2023-08-22T16:31:28.643Z,29.20
2023-08-22T16:33:58.704Z,29.20
2023-08-22T16:36:27.304Z,29.20
2023-08-22T16:38:55.917Z,29.20
2023-08-22T16:41:24.390Z,29.20
2023-08-22T16:43:54.487Z,29.30
2023-08-22T16:46:23.081Z,29.30
2023-08-22T16:48:51.552Z,29.40
2023-08-22T16:51:21.527Z,29.50
2023-08-22T16:53:50.057Z,29.50
2023-08-22T16:56:18.554Z,29.50
2023-08-22T16:58:52.576Z,29.70
2023-08-22T17:01:27.839Z,29.60
2023-08-22T17:03:56.395Z,29.50
2023-08-22T17:06:26.269Z,29.40
2023-08-22T17:08:54.764Z,29.30
2023-08-22T17:11:23.280Z,29.30
2023-08-22T17:13:51.726Z,29.20
2023-08-22T17:16:20.329Z,29.20
2023-08-22T17:18:49.481Z,29.30
2023-08-22T17:21:18.016Z,29.20
2023-08-22T17:23:47.827Z,29.20
2023-08-22T17:26:16.918Z,29.20
2023-08-22T17:28:45.448Z,29.10
2023-08-22T17:31:14.533Z,29.10
2023-08-22T17:33:43.759Z,29.10
2023-08-22T17:36:14.017Z,29.00
2023-08-22T17:38:43.693Z,28.90
2023-08-22T17:41:14.124Z,28.90
2023-08-22T17:43:43.075Z,28.70
2023-08-22T17:46:13.787Z,28.80
2023-08-22T17:48:42.453Z,28.70
2023-08-22T17:51:11.246Z,28.70
2023-08-22T17:53:39.784Z,28.70
2023-08-22T17:56:08.811Z,28.70
2023-08-22T17:58:38.921Z,28.70
2023-08-22T18:01:09.267Z,28.60
2023-08-22T18:03:37.874Z,28.50
2023-08-22T18:06:06.628Z,28.50
2023-08-22T18:08:36.367Z,28.60
2023-08-22T18:11:05.078Z,28.40
2023-08-22T18:13:33.594Z,28.30
2023-08-22T18:16:10.253Z,28.20
2023-08-22T18:18:41.071Z,28.20
2023-08-22T18:21:11.221Z,28.10
2023-08-22T18:23:39.966Z,28.10
2023-08-22T18:26:09.756Z,28.00
2023-08-22T18:28:38.732Z,27.90
2023-08-22T18:31:12.710Z,27.80
2023-08-22T18:33:41.185Z,27.70
2023-08-22T18:36:17.637Z,27.60
2023-08-22T18:38:46.202Z,27.60
2023-08-22T18:41:14.777Z,27.50
2023-08-22T18:43:44.181Z,27.50
2023-08-22T18:46:14.471Z,27.50
2023-08-22T18:48:43.206Z,27.50
2023-08-22T18:51:11.950Z,27.50
2023-08-22T18:53:40.600Z,27.40
2023-08-22T18:56:10.144Z,27.40
2023-08-22T18:58:41.065Z,27.30
2023-08-22T19:01:10.042Z,27.20
2023-08-22T19:03:39.944Z,27.20
2023-08-22T19:06:08.587Z,27.10
2023-08-22T19:08:37.047Z,27.00
2023-08-22T19:11:05.765Z,27.10
2023-08-22T19:13:34.393Z,27.00
2023-08-22T19:16:02.910Z,26.90
2023-08-22T19:18:31.346Z,26.90
2023-08-22T19:21:01.249Z,26.90
2023-08-22T19:23:29.721Z,26.90
2023-08-22T19:26:01.932Z,26.90
2023-08-22T19:28:30.377Z,26.90
2023-08-22T19:30:59.662Z,26.80
2023-08-22T19:33:29.431Z,26.90
2023-08-22T19:35:58.012Z,26.90
2023-08-22T19:38:27.970Z,27.00
2023-08-22T19:40:57.049Z,27.00
2023-08-22T19:43:25.547Z,27.10
2023-08-22T19:45:56.169Z,27.10
2023-08-22T19:48:24.783Z,27.10
2023-08-22T19:50:53.399Z,27.10
2023-08-22T19:53:21.948Z,27.20
2023-08-22T19:55:52.008Z,27.20
2023-08-22T19:58:20.557Z,27.30
2023-08-22T20:00:49.423Z,27.30
2023-08-22T20:03:18.066Z,27.30
2023-08-22T20:05:48.311Z,27.40
2023-08-22T20:08:16.867Z,27.40
2023-08-22T20:10:45.410Z,27.40
2023-08-22T20:13:20.086Z,27.40
2023-08-22T20:15:50.174Z,27.30
2023-08-22T20:18:18.731Z,27.40
2023-08-22T20:20:48.575Z,27.30
2023-08-22T20:23:18.982Z,27.30
2023-08-22T20:25:47.456Z,27.30
2023-08-22T20:28:17.450Z,27.30
2023-08-22T20:30:48.514Z,27.30
2023-08-22T20:33:23.036Z,27.30
2023-08-22T20:35:52.347Z,27.30
2023-08-22T20:38:20.866Z,27.30
2023-08-22T20:40:49.279Z,27.30
2023-08-22T20:43:19.114Z,27.20
2023-08-22T20:45:47.790Z,27.30
2023-08-22T20:48:16.398Z,27.20
2023-08-22T20:50:44.874Z,27.30
2023-08-22T20:53:13.434Z,27.30
2023-08-22T20:55:41.895Z,27.20
2023-08-22T20:58:10.380Z,27.20
2023-08-22T21:00:40.376Z,27.10
2023-08-22T21:03:09.060Z,27.20
2023-08-22T21:05:38.205Z,27.10
2023-08-22T21:08:06.940Z,27.10
2023-08-22T21:10:35.333Z,27.00
2023-08-22T21:13:04.318Z,27.00
2023-08-22T21:15:32.871Z,26.90
2023-08-22T21:18:02.723Z,27.00
2023-08-22T21:20:31.362Z,26.90
2023-08-22T21:22:59.878Z,26.90
2023-08-22T21:25:28.441Z,26.90
2023-08-22T21:27:56.936Z,26.90
2023-08-22T21:30:25.536Z,26.90
2023-08-22T21:32:54.627Z,26.90
2023-08-22T21:35:24.680Z,26.90
2023-08-22T21:37:53.148Z,26.80
2023-08-22T21:40:21.598Z,26.90
2023-08-22T21:42:50.225Z,26.90
2023-08-22T21:45:18.710Z,26.80
2023-08-22T21:47:47.328Z,26.80
2023-08-22T21:50:17.512Z,26.80
2023-08-22T21:52:49.134Z,26.70
2023-08-22T21:55:18.000Z,26.70
2023-08-22T21:57:46.432Z,26.70
2023-08-22T22:00:16.005Z,26.70
2023-08-22T22:02:45.056Z,26.70
2023-08-22T22:05:13.754Z,26.80
2023-08-22T22:07:42.288Z,26.70
2023-08-22T22:10:12.290Z,26.70
2023-08-22T22:12:40.835Z,26.70
2023-08-22T22:15:09.850Z,26.70
2023-08-22T22:17:38.475Z,26.60
2023-08-22T22:20:08.005Z,26.60
2023-08-22T22:22:36.592Z,26.60
2023-08-22T22:25:05.460Z,26.50
2023-08-22T22:27:35.360Z,26.50
2023-08-22T22:30:03.793Z,26.50
2023-08-22T22:32:32.303Z,26.50
2023-08-22T22:35:00.762Z,26.50
2023-08-22T22:37:29.304Z,26.50
2023-08-22T22:39:57.903Z,26.50
2023-08-22T22:42:26.418Z,26.50
2023-08-22T22:44:57.523Z,26.40
2023-08-22T22:47:26.578Z,26.40
2023-08-22T22:49:55.092Z,26.40
2023-08-22T22:52:23.540Z,26.30
2023-08-22T22:54:51.992Z,26.30
2023-08-22T22:57:20.444Z,26.20
2023-08-22T22:59:48.936Z,26.10
2023-08-22T23:02:18.894Z,26.10
2023-08-22T23:04:47.382Z,26.00
2023-08-22T23:07:15.888Z,26.00
2023-08-22T23:09:44.349Z,26.00
2023-08-22T23:12:13.387Z,26.00
2023-08-22T23:14:41.982Z,25.90
2023-08-22T23:17:10.568Z,25.90
2023-08-22T23:19:41.212Z,25.90
2023-08-22T23:22:09.810Z,25.90
2023-08-22T23:24:38.330Z,25.90
2023-08-22T23:27:06.925Z,25.80
2023-08-22T23:29:35.501Z,25.80
2023-08-22T23:32:03.942Z,25.90
2023-08-22T23:34:32.531Z,25.90
2023-08-22T23:37:02.432Z,25.80
2023-08-22T23:39:30.980Z,25.70
2023-08-22T23:41:59.525Z,25.70
2023-08-22T23:44:28.076Z,25.80
2023-08-22T23:46:56.589Z,25.70
2023-08-22T23:49:25.173Z,25.70
2023-08-22T23:51:53.751Z,25.70
2023-08-22T23:54:23.759Z,25.70
2023-08-22T23:56:52.232Z,25.70
2023-08-22T23:59:20.778Z,25.70
